sensor_id;sensor_type;location;lat;lon;timestamp;P1;durP1;ratioP1;P2;durP2;ratioP2
43413;SDS011;73638;49.676;8.606;2024-02-21T00:03:21;4.822;;;15.0186;;
43413;SDS011;73638;49.676;8.606;2024-02-21T00:08:28;5.5321;;;16.3844;;
43413;SDS011;73638;49.676;8.606;2024-02-21T00:13:34;4.621;;;17.0004;;
43413;SDS011;73638;49.676;8.606;2024-02-21T00:18:41;6.0365;;;17.7619;;
43413;SDS011;73638;49.676;8.606;2024-02-21T00:23:48;6.3117;;;23.0117;;
43413;SDS011;73638;49.676;8.606;2024-02-21T00:28:54;5.423;;;15.5325;;
43413;SDS011;73638;49.676;8.606;2024-02-21T00:34:01;5.7866;;;18.8408;;
43413;SDS011;73638;49.676;8.606;2024-02-21T00:39:08;5.9019;;;14.4914;;
43413;SDS011;73638;49.676;8.606;2024-02-21T00:44:15;5.2455;;;17.8948;;
43413;SDS011;73638;49.676;8.606;2024-02-21T00:49:22;5.4756;;;13.5296;;
43413;SDS011;73638;49.676;8.606;2024-02-21T00:54:40;6.0852;;;16.5701;;
43413;SDS011;73638;49.676;8.606;2024-02-21T00:59:36;5.8884;;;17.9758;;
43413;SDS011;73638;49.676;8.606;2024-02-21T01:04:42;5.2767;;;14.0145;;
43413;SDS011;73638;49.676;8.606;2024-02-21T01:09:49;5.0629;;;14.6162;;
43413;SDS011;73638;49.676;8.606;2024-02-21T01:14:55;5.3362;;;12.4306;;
43413;SDS011;73638;49.676;8.606;2024-02-21T01:20:03;4.9965;;;16.6435;;
43413;SDS011;73638;49.676;8.606;2024-02-21T01:25:09;5.2365;;;15.9323;;
43413;SDS011;73638;49.676;8.606;2024-02-21T01:30:16;5.1505;;;18.2324;;
43413;SDS011;73638;49.676;8.606;2024-02-21T01:35:22;5.0503;;;17.6711;;
43413;SDS011;73638;49.676;8.606;2024-02-21T01:40:29;5.1208;;;15.0964;;
43413;SDS011;73638;49.676;8.606;2024-02-21T01:45:36;4.9448;;;12.9625;;
43413;SDS011;73638;49.676;8.606;2024-02-21T01:50:43;4.6806;;;15.1573;;
43413;SDS011;73638;49.676;8.606;2024-02-21T01:55:50;4.7916;;;13.4282;;
43413;SDS011;73638;49.676;8.606;2024-02-21T02:00:57;4.5371;;;15.3477;;
43413;SDS011;73638;49.676;8.606;2024-02-21T02:06:04;5.064;;;15.2521;;
43413;SDS011;73638;49.676;8.606;2024-02-21T02:11:13;4.1076;;;15.5283;;
43413;SDS011;73638;49.676;8.606;2024-02-21T02:16:17;4.5589;;;18.4834;;
43413;SDS011;73638;49.676;8.606;2024-02-21T02:21:27;3.9032;;;9.4116;;
43413;SDS011;73638;49.676;8.606;2024-02-21T02:26:31;4.5013;;;14.1983;;
43413;SDS011;73638;49.676;8.606;2024-02-21T02:31:38;3.9043;;;11.8703;;
43413;SDS011;73638;49.676;8.606;2024-02-21T02:36:45;3.604;;;8.5273;;
43413;SDS011;73638;49.676;8.606;2024-02-21T02:41:52;3.9462;;;11.805;;
43413;SDS011;73638;49.676;8.606;2024-02-21T02:46:59;3.9107;;;15.0349;;
43413;SDS011;73638;49.676;8.606;2024-02-21T02:52:05;4.3784;;;14.5077;;
43413;SDS011;73638;49.676;8.606;2024-02-21T02:57:11;4.0218;;;12.9101;;
43413;SDS011;73638;49.676;8.606;2024-02-21T03:02:18;4.4671;;;9.714;;
43413;SDS011;73638;49.676;8.606;2024-02-21T03:07:25;4.3617;;;14.1548;;
43413;SDS011;73638;49.676;8.606;2024-02-21T03:12:32;5.0491;;;15.9654;;
43413;SDS011;73638;49.676;8.606;2024-02-21T03:17:39;4.6235;;;13.9983;;
43413;SDS011;73638;49.676;8.606;2024-02-21T03:22:45;4.3433;;;14.2771;;
43413;SDS011;73638;49.676;8.606;2024-02-21T03:27:52;4.2764;;;16.9989;;
43413;SDS011;73638;49.676;8.606;2024-02-21T03:32:59;3.8742;;;10.9651;;
43413;SDS011;73638;49.676;8.606;2024-02-21T03:38:05;4.3361;;;10.6619;;
43413;SDS011;73638;49.676;8.606;2024-02-21T03:43:12;3.7343;;;11.8157;;
43413;SDS011;73638;49.676;8.606;2024-02-21T03:48:19;4.538;;;17.3815;;
43413;SDS011;73638;49.676;8.606;2024-02-21T03:53:26;3.5837;;;11.3708;;
43413;SDS011;73638;49.676;8.606;2024-02-21T03:58:33;3.7326;;;14.0664;;
43413;SDS011;73638;49.676;8.606;2024-02-21T04:03:40;3.7649;;;11.2502;;
43413;SDS011;73638;49.676;8.606;2024-02-21T04:08:46;3.6279;;;16.5051;;
43413;SDS011;73638;49.676;8.606;2024-02-21T04:13:53;3.9515;;;12.3955;;
43413;SDS011;73638;49.676;8.606;2024-02-21T04:18:59;3.6726;;;8.275;;
43413;SDS011;73638;49.676;8.606;2024-02-21T04:24:06;4.6428;;;11.0012;;
43413;SDS011;73638;49.676;8.606;2024-02-21T04:29:13;4.1828;;;20.5099;;
43413;SDS011;73638;49.676;8.606;2024-02-21T04:34:19;4.8877;;;10.5772;;
43413;SDS011;73638;49.676;8.606;2024-02-21T04:39:26;3.9261;;;11.1733;;
43413;SDS011;73638;49.676;8.606;2024-02-21T04:44:33;4.0025;;;11.0173;;
43413;SDS011;73638;49.676;8.606;2024-02-21T04:49:41;4.1644;;;11.3789;;
43413;SDS011;73638;49.676;8.606;2024-02-21T04:54:47;4.4808;;;12.6903;;
43413;SDS011;73638;49.676;8.606;2024-02-21T04:59:54;3.9551;;;10.3628;;
43413;SDS011;73638;49.676;8.606;2024-02-21T05:05:01;3.4832;;;13.8666;;
43413;SDS011;73638;49.676;8.606;2024-02-21T05:10:07;3.8244;;;15.688;;
43413;SDS011;73638;49.676;8.606;2024-02-21T05:15:14;3.3757;;;14.5839;;
43413;SDS011;73638;49.676;8.606;2024-02-21T05:20:21;4.2201;;;12.9158;;
43413;SDS011;73638;49.676;8.606;2024-02-21T05:25:27;4.2799;;;13.3143;;
43413;SDS011;73638;49.676;8.606;2024-02-21T05:30:34;4.0452;;;8.8187;;
43413;SDS011;73638;49.676;8.606;2024-02-21T05:35:40;4.9515;;;15.332;;
43413;SDS011;73638;49.676;8.606;2024-02-21T05:40:47;4.1265;;;14.9377;;
43413;SDS011;73638;49.676;8.606;2024-02-21T05:45:54;3.9669;;;13.4942;;
43413;SDS011;73638;49.676;8.606;2024-02-21T05:51:01;3.6565;;;9.1561;;
43413;SDS011;73638;49.676;8.606;2024-02-21T05:56:09;4.2658;;;11.6118;;
43413;SDS011;73638;49.676;8.606;2024-02-21T06:01:15;4.0669;;;11.964;;
43413;SDS011;73638;49.676;8.606;2024-02-21T06:06:21;3.6903;;;16.2912;;
43413;SDS011;73638;49.676;8.606;2024-02-21T06:11:28;4.1104;;;11.184;;
43413;SDS011;73638;49.676;8.606;2024-02-21T06:16:34;5.0512;;;18.1698;;
43413;SDS011;73638;49.676;8.606;2024-02-21T06:21:41;4.4198;;;13.052;;
43413;SDS011;73638;49.676;8.606;2024-02-21T06:26:48;4.0808;;;10.0153;;
43413;SDS011;73638;49.676;8.606;2024-02-21T06:31:55;3.7579;;;13.4905;;
43413;SDS011;73638;49.676;8.606;2024-02-21T06:37:01;4.5742;;;14.855;;
43413;SDS011;73638;49.676;8.606;2024-02-21T06:42:08;4.1847;;;10.6393;;
43413;SDS011;73638;49.676;8.606;2024-02-21T06:47:14;4.5355;;;12.3391;;
43413;SDS011;73638;49.676;8.606;2024-02-21T06:52:22;4.5108;;;16.0787;;
43413;SDS011;73638;49.676;8.606;2024-02-21T06:57:28;4.4156;;;19.4877;;
43413;SDS011;73638;49.676;8.606;2024-02-21T07:02:35;4.1012;;;14.004;;
43413;SDS011;73638;49.676;8.606;2024-02-21T07:07:42;4.3155;;;15.0819;;
43413;SDS011;73638;49.676;8.606;2024-02-21T07:12:48;4.8045;;;11.0398;;
43413;SDS011;73638;49.676;8.606;2024-02-21T07:17:55;4.5616;;;14.8115;;
43413;SDS011;73638;49.676;8.606;2024-02-21T07:23:02;4.7286;;;13.7399;;
43413;SDS011;73638;49.676;8.606;2024-02-21T07:28:09;4.4734;;;12.4833;;
43413;SDS011;73638;49.676;8.606;2024-02-21T07:33:15;3.6307;;;7.0802;;
43413;SDS011;73638;49.676;8.606;2024-02-21T07:38:22;4.5962;;;15.2497;;
43413;SDS011;73638;49.676;8.606;2024-02-21T07:43:28;4.0026;;;12.3361;;
43413;SDS011;73638;49.676;8.606;2024-02-21T07:48:36;5.0983;;;14.0474;;
43413;SDS011;73638;49.676;8.606;2024-02-21T07:53:42;4.0087;;;13.394;;
43413;SDS011;73638;49.676;8.606;2024-02-21T07:58:49;3.8917;;;12.2989;;
43413;SDS011;73638;49.676;8.606;2024-02-21T08:03:56;3.926;;;9.3712;;
43413;SDS011;73638;49.676;8.606;2024-02-21T08:09:03;4.3701;;;13.8969;;
43413;SDS011;73638;49.676;8.606;2024-02-21T08:14:10;4.4093;;;19.356;;
43413;SDS011;73638;49.676;8.606;2024-02-21T08:19:17;3.6719;;;8.8844;;
43413;SDS011;73638;49.676;8.606;2024-02-21T08:24:24;3.7071;;;9.2442;;
43413;SDS011;73638;49.676;8.606;2024-02-21T08:29:31;3.9906;;;13.5705;;
43413;SDS011;73638;49.676;8.606;2024-02-21T08:34:43;4.0844;;;11.7932;;
43413;SDS011;73638;49.676;8.606;2024-02-21T08:39:44;4.2565;;;12.9674;;
43413;SDS011;73638;49.676;8.606;2024-02-21T08:44:51;4.1706;;;13.0271;;
43413;SDS011;73638;49.676;8.606;2024-02-21T08:49:58;4.2555;;;13.3251;;
43413;SDS011;73638;49.676;8.606;2024-02-21T08:55:05;3.9464;;;10.9845;;
43413;SDS011;73638;49.676;8.606;2024-02-21T09:00:11;3.7392;;;8.6113;;
43413;SDS011;73638;49.676;8.606;2024-02-21T09:05:18;4.1704;;;11.5324;;
43413;SDS011;73638;49.676;8.606;2024-02-21T09:10:25;3.8062;;;9.9863;;
43413;SDS011;73638;49.676;8.606;2024-02-21T09:15:34;3.8579;;;12.1461;;
43413;SDS011;73638;49.676;8.606;2024-02-21T09:20:38;4.3588;;;8.842;;
43413;SDS011;73638;49.676;8.606;2024-02-21T09:25:45;3.2698;;;8.035;;
43413;SDS011;73638;49.676;8.606;2024-02-21T09:30:52;3.2447;;;10.8538;;
43413;SDS011;73638;49.676;8.606;2024-02-21T09:36:00;3.5575;;;8.8579;;
43413;SDS011;73638;49.676;8.606;2024-02-21T09:41:12;3.2366;;;9.8469;;
43413;SDS011;73638;49.676;8.606;2024-02-21T09:46:16;2.9068;;;10.0962;;
43413;SDS011;73638;49.676;8.606;2024-02-21T09:51:20;2.8376;;;9.8051;;
43413;SDS011;73638;49.676;8.606;2024-02-21T09:56:27;3.192;;;10.111;;
43413;SDS011;73638;49.676;8.606;2024-02-21T10:01:35;3.5742;;;12.1058;;
43413;SDS011;73638;49.676;8.606;2024-02-21T10:06:41;3.0851;;;9.7624;;
43413;SDS011;73638;49.676;8.606;2024-02-21T10:11:48;3.5581;;;14.99;;
43413;SDS011;73638;49.676;8.606;2024-02-21T10:16:56;3.8148;;;12.8582;;
43413;SDS011;73638;49.676;8.606;2024-02-21T10:22:02;2.7667;;;9.225;;
43413;SDS011;73638;49.676;8.606;2024-02-21T10:27:09;3.9193;;;13.1107;;
43413;SDS011;73638;49.676;8.606;2024-02-21T10:32:16;3.5507;;;10.8142;;
43413;SDS011;73638;49.676;8.606;2024-02-21T10:37:23;3.2906;;;10.7465;;
43413;SDS011;73638;49.676;8.606;2024-02-21T10:42:30;3.1669;;;7.6737;;
43413;SDS011;73638;49.676;8.606;2024-02-21T10:47:36;3.5011;;;9.6154;;
43413;SDS011;73638;49.676;8.606;2024-02-21T10:52:45;3.4496;;;13.9844;;
43413;SDS011;73638;49.676;8.606;2024-02-21T10:57:51;3.1859;;;8.7445;;
43413;SDS011;73638;49.676;8.606;2024-02-21T11:02:58;3.6557;;;13.1866;;
43413;SDS011;73638;49.676;8.606;2024-02-21T11:08:05;4.7562;;;11.5548;;
43413;SDS011;73638;49.676;8.606;2024-02-21T11:13:11;3.198;;;11.1625;;
43413;SDS011;73638;49.676;8.606;2024-02-21T11:18:25;2.8381;;;13.2775;;
43413;SDS011;73638;49.676;8.606;2024-02-21T11:23:25;3.4449;;;16.0293;;
43413;SDS011;73638;49.676;8.606;2024-02-21T11:28:32;2.1429;;;9.41;;
43413;SDS011;73638;49.676;8.606;2024-02-21T11:33:41;2.1478;;;8.1226;;
43413;SDS011;73638;49.676;8.606;2024-02-21T11:38:46;2.0711;;;9.7109;;
43413;SDS011;73638;49.676;8.606;2024-02-21T11:43:53;2.1197;;;7.7771;;
43413;SDS011;73638;49.676;8.606;2024-02-21T11:49:00;2.2389;;;12.4225;;
43413;SDS011;73638;49.676;8.606;2024-02-21T11:54:06;2.2702;;;5.7473;;
43413;SDS011;73638;49.676;8.606;2024-02-21T11:59:13;2.5263;;;11.7034;;
43413;SDS011;73638;49.676;8.606;2024-02-21T12:04:20;2.0245;;;7.5933;;
43413;SDS011;73638;49.676;8.606;2024-02-21T12:09:27;2.5166;;;10.2484;;
43413;SDS011;73638;49.676;8.606;2024-02-21T12:14:34;1.8938;;;9.085;;
43413;SDS011;73638;49.676;8.606;2024-02-21T12:19:41;1.6273;;;6.7054;;
43413;SDS011;73638;49.676;8.606;2024-02-21T12:24:48;1.9526;;;7.8196;;
43413;SDS011;73638;49.676;8.606;2024-02-21T12:29:55;2.0422;;;6.4297;;
43413;SDS011;73638;49.676;8.606;2024-02-21T12:35:02;2.0728;;;8.5857;;
43413;SDS011;73638;49.676;8.606;2024-02-21T12:40:09;1.4653;;;3.8161;;
43413;SDS011;73638;49.676;8.606;2024-02-21T12:45:16;1.8746;;;7.4809;;
43413;SDS011;73638;49.676;8.606;2024-02-21T12:50:23;2.0001;;;8.0548;;
43413;SDS011;73638;49.676;8.606;2024-02-21T12:55:29;1.5294;;;8.084;;
43413;SDS011;73638;49.676;8.606;2024-02-21T13:00:40;1.8116;;;6.5334;;
43413;SDS011;73638;49.676;8.606;2024-02-21T13:05:44;1.5343;;;5.5982;;
43413;SDS011;73638;49.676;8.606;2024-02-21T13:10:51;1.7913;;;6.976;;
43413;SDS011;73638;49.676;8.606;2024-02-21T13:15:57;1.493;;;4.4295;;
43413;SDS011;73638;49.676;8.606;2024-02-21T13:21:04;1.8438;;;9.8446;;
43413;SDS011;73638;49.676;8.606;2024-02-21T13:26:11;1.5241;;;4.1199;;
43413;SDS011;73638;49.676;8.606;2024-02-21T13:31:18;2.4407;;;7.9465;;
43413;SDS011;73638;49.676;8.606;2024-02-21T13:36:25;1.8956;;;8.629;;
43413;SDS011;73638;49.676;8.606;2024-02-21T13:41:32;1.9637;;;7.4517;;
43413;SDS011;73638;49.676;8.606;2024-02-21T13:46:39;2.0902;;;5.5893;;
43413;SDS011;73638;49.676;8.606;2024-02-21T13:51:46;1.802;;;9.6864;;
43413;SDS011;73638;49.676;8.606;2024-02-21T13:56:52;2.1529;;;5.384;;
43413;SDS011;73638;49.676;8.606;2024-02-21T14:01:59;2.541;;;8.2071;;
43413;SDS011;73638;49.676;8.606;2024-02-21T14:07:06;1.5769;;;7.9466;;
43413;SDS011;73638;49.676;8.606;2024-02-21T14:12:13;2.7555;;;9.0363;;
43413;SDS011;73638;49.676;8.606;2024-02-21T14:17:20;2.0902;;;6.2405;;
43413;SDS011;73638;49.676;8.606;2024-02-21T14:22:27;2.6821;;;9.1169;;
43413;SDS011;73638;49.676;8.606;2024-02-21T14:27:34;2.5927;;;10.376;;
43413;SDS011;73638;49.676;8.606;2024-02-21T14:32:43;2.2105;;;6.8821;;
43413;SDS011;73638;49.676;8.606;2024-02-21T14:37:48;1.9538;;;9.795;;
43413;SDS011;73638;49.676;8.606;2024-02-21T14:42:54;1.7496;;;8.8568;;
43413;SDS011;73638;49.676;8.606;2024-02-21T14:48:01;1.3991;;;3.5341;;
43413;SDS011;73638;49.676;8.606;2024-02-21T14:53:08;1.6824;;;6.434;;
43413;SDS011;73638;49.676;8.606;2024-02-21T14:58:15;1.703;;;5.5966;;
43413;SDS011;73638;49.676;8.606;2024-02-21T15:03:22;2.0336;;;7.3826;;
43413;SDS011;73638;49.676;8.606;2024-02-21T15:08:29;1.8865;;;8.5322;;
43413;SDS011;73638;49.676;8.606;2024-02-21T15:13:36;1.9493;;;6.1162;;
43413;SDS011;73638;49.676;8.606;2024-02-21T15:18:42;1.6975;;;7.2616;;
43413;SDS011;73638;49.676;8.606;2024-02-21T15:23:49;1.9752;;;8.9914;;
43413;SDS011;73638;49.676;8.606;2024-02-21T15:28:56;1.6556;;;6.0752;;
43413;SDS011;73638;49.676;8.606;2024-02-21T15:34:03;1.9645;;;10.9742;;
43413;SDS011;73638;49.676;8.606;2024-02-21T15:39:09;1.9377;;;6.0741;;
43413;SDS011;73638;49.676;8.606;2024-02-21T15:44:16;1.3984;;;8.0987;;
43413;SDS011;73638;49.676;8.606;2024-02-21T15:49:23;1.9321;;;6.2054;;
43413;SDS011;73638;49.676;8.606;2024-02-21T15:54:29;1.9793;;;5.3839;;
43413;SDS011;73638;49.676;8.606;2024-02-21T15:59:36;1.9903;;;8.3026;;
43413;SDS011;73638;49.676;8.606;2024-02-21T16:04:43;1.2888;;;4.269;;
43413;SDS011;73638;49.676;8.606;2024-02-21T16:09:50;2.0372;;;5.4384;;
43413;SDS011;73638;49.676;8.606;2024-02-21T16:14:56;1.7852;;;6.7075;;
43413;SDS011;73638;49.676;8.606;2024-02-21T16:20:04;1.3302;;;4.3367;;
43413;SDS011;73638;49.676;8.606;2024-02-21T16:25:10;1.4978;;;5.3161;;
43413;SDS011;73638;49.676;8.606;2024-02-21T16:30:17;1.9272;;;5.7129;;
43413;SDS011;73638;49.676;8.606;2024-02-21T16:35:24;1.5297;;;5.3903;;
43413;SDS011;73638;49.676;8.606;2024-02-21T16:40:31;1.1577;;;2.8325;;
43413;SDS011;73638;49.676;8.606;2024-02-21T16:45:38;1.9747;;;4.711;;
43413;SDS011;73638;49.676;8.606;2024-02-21T16:50:57;2.5305;;;7.7391;;
43413;SDS011;73638;49.676;8.606;2024-02-21T16:55:51;2.6818;;;5.8954;;
43413;SDS011;73638;49.676;8.606;2024-02-21T17:00:58;3.7813;;;10.997;;
43413;SDS011;73638;49.676;8.606;2024-02-21T17:06:17;2.0053;;;7.66;;
43413;SDS011;73638;49.676;8.606;2024-02-21T17:11:12;1.8586;;;5.9886;;
43413;SDS011;73638;49.676;8.606;2024-02-21T17:16:18;1.6181;;;4.9638;;
43413;SDS011;73638;49.676;8.606;2024-02-21T17:21:25;1.549;;;6.4317;;
43413;SDS011;73638;49.676;8.606;2024-02-21T17:26:32;1.8984;;;10.2538;;
43413;SDS011;73638;49.676;8.606;2024-02-21T17:31:39;2.5009;;;10.2367;;
43413;SDS011;73638;49.676;8.606;2024-02-21T17:36:45;2.5158;;;3.5842;;
43413;SDS011;73638;49.676;8.606;2024-02-21T17:41:52;2.7104;;;9.5025;;
43413;SDS011;73638;49.676;8.606;2024-02-21T17:46:59;2.6686;;;12.3407;;
43413;SDS011;73638;49.676;8.606;2024-02-21T17:52:06;2.0661;;;8.1093;;
43413;SDS011;73638;49.676;8.606;2024-02-21T17:57:13;2.1763;;;6.6755;;
43413;SDS011;73638;49.676;8.606;2024-02-21T18:02:20;2.5783;;;5.7777;;
43413;SDS011;73638;49.676;8.606;2024-02-21T18:07:27;2.2281;;;5.3961;;
43413;SDS011;73638;49.676;8.606;2024-02-21T18:12:34;2.4884;;;8.5178;;
43413;SDS011;73638;49.676;8.606;2024-02-21T18:17:41;2.662;;;9.3256;;
43413;SDS011;73638;49.676;8.606;2024-02-21T18:22:48;2.6086;;;8.5681;;
43413;SDS011;73638;49.676;8.606;2024-02-21T18:27:55;2.9237;;;10.5299;;
43413;SDS011;73638;49.676;8.606;2024-02-21T18:33:01;2.6721;;;8.4024;;
43413;SDS011;73638;49.676;8.606;2024-02-21T18:38:08;3.6634;;;7.4849;;
43413;SDS011;73638;49.676;8.606;2024-02-21T18:43:15;2.7948;;;8.8332;;
43413;SDS011;73638;49.676;8.606;2024-02-21T18:48:22;2.6116;;;8.4767;;
43413;SDS011;73638;49.676;8.606;2024-02-21T18:53:28;2.3661;;;6.7352;;
43413;SDS011;73638;49.676;8.606;2024-02-21T18:58:35;5.7428;;;16.7285;;
43413;SDS011;73638;49.676;8.606;2024-02-21T19:03:42;13.409;;;39.1276;;
43413;SDS011;73638;49.676;8.606;2024-02-21T19:08:49;3.6629;;;10.5467;;
43413;SDS011;73638;49.676;8.606;2024-02-21T19:13:56;3.0663;;;11.5575;;
43413;SDS011;73638;49.676;8.606;2024-02-21T19:19:02;2.0803;;;3.5038;;
43413;SDS011;73638;49.676;8.606;2024-02-21T19:24:09;2.1578;;;6.2105;;
43413;SDS011;73638;49.676;8.606;2024-02-21T19:29:17;2.6177;;;10.5746;;
43413;SDS011;73638;49.676;8.606;2024-02-21T19:34:24;1.981;;;6.8014;;
43413;SDS011;73638;49.676;8.606;2024-02-21T19:39:30;1.8927;;;5.1414;;
43413;SDS011;73638;49.676;8.606;2024-02-21T19:44:37;1.8874;;;5.5278;;
43413;SDS011;73638;49.676;8.606;2024-02-21T19:49:44;2.0297;;;4.7892;;
43413;SDS011;73638;49.676;8.606;2024-02-21T19:54:51;1.6485;;;5.2236;;
43413;SDS011;73638;49.676;8.606;2024-02-21T19:59:58;1.7104;;;4.261;;
43413;SDS011;73638;49.676;8.606;2024-02-21T20:05:05;1.794;;;3.3015;;
43413;SDS011;73638;49.676;8.606;2024-02-21T20:10:11;1.6895;;;6.7318;;
43413;SDS011;73638;49.676;8.606;2024-02-21T20:15:18;1.7008;;;7.8181;;
43413;SDS011;73638;49.676;8.606;2024-02-21T20:20:25;1.6011;;;3.7978;;
43413;SDS011;73638;49.676;8.606;2024-02-21T20:25:32;2.1455;;;6.4965;;
43413;SDS011;73638;49.676;8.606;2024-02-21T20:30:39;1.7792;;;3.6984;;
43413;SDS011;73638;49.676;8.606;2024-02-21T20:35:45;1.9414;;;5.1651;;
43413;SDS011;73638;49.676;8.606;2024-02-21T20:40:52;2.6738;;;6.8528;;
43413;SDS011;73638;49.676;8.606;2024-02-21T20:45:58;2.1454;;;9.352;;
43413;SDS011;73638;49.676;8.606;2024-02-21T20:51:06;1.4754;;;5.0291;;
43413;SDS011;73638;49.676;8.606;2024-02-21T20:56:12;1.831;;;6.2501;;
43413;SDS011;73638;49.676;8.606;2024-02-21T21:01:19;1.6205;;;6.0077;;
43413;SDS011;73638;49.676;8.606;2024-02-21T21:06:25;1.3579;;;4.2237;;
43413;SDS011;73638;49.676;8.606;2024-02-21T21:11:47;1.8953;;;5.2261;;
43413;SDS011;73638;49.676;8.606;2024-02-21T21:16:39;1.6658;;;4.6477;;
43413;SDS011;73638;49.676;8.606;2024-02-21T21:21:47;1.6228;;;8.5167;;
43413;SDS011;73638;49.676;8.606;2024-02-21T21:26:52;1.5274;;;3.4912;;
43413;SDS011;73638;49.676;8.606;2024-02-21T21:31:59;1.5993;;;3.0643;;
43413;SDS011;73638;49.676;8.606;2024-02-21T21:37:06;1.9569;;;4.0737;;
43413;SDS011;73638;49.676;8.606;2024-02-21T21:42:13;1.762;;;4.9269;;
43413;SDS011;73638;49.676;8.606;2024-02-21T21:47:20;1.9594;;;2.9654;;
43413;SDS011;73638;49.676;8.606;2024-02-21T21:52:26;1.8857;;;4.6368;;
43413;SDS011;73638;49.676;8.606;2024-02-21T21:57:33;1.9311;;;6.3283;;
43413;SDS011;73638;49.676;8.606;2024-02-21T22:02:39;2.3385;;;7.0713;;
43413;SDS011;73638;49.676;8.606;2024-02-21T22:07:46;1.8904;;;3.7972;;
43413;SDS011;73638;49.676;8.606;2024-02-21T22:12:53;2.1328;;;5.585;;
43413;SDS011;73638;49.676;8.606;2024-02-21T22:18:00;1.2261;;;2.1687;;
43413;SDS011;73638;49.676;8.606;2024-02-21T22:23:07;1.4794;;;4.4374;;
43413;SDS011;73638;49.676;8.606;2024-02-21T22:28:13;1.1748;;;2.1274;;
43413;SDS011;73638;49.676;8.606;2024-02-21T22:33:20;1.2877;;;3.6972;;
43413;SDS011;73638;49.676;8.606;2024-02-21T22:38:27;1.5367;;;4.8973;;
43413;SDS011;73638;49.676;8.606;2024-02-21T22:43:34;0.817;;;3.0807;;
43413;SDS011;73638;49.676;8.606;2024-02-21T22:48:41;0.8789;;;2.3626;;
43413;SDS011;73638;49.676;8.606;2024-02-21T22:53:47;1.1267;;;5.3787;;
43413;SDS011;73638;49.676;8.606;2024-02-21T22:58:54;1.0791;;;4.1084;;
43413;SDS011;73638;49.676;8.606;2024-02-21T23:04:01;1.0877;;;4.1853;;
43413;SDS011;73638;49.676;8.606;2024-02-21T23:09:07;1.2257;;;1.8043;;
43413;SDS011;73638;49.676;8.606;2024-02-21T23:14:14;1.0238;;;1.7564;;
43413;SDS011;73638;49.676;8.606;2024-02-21T23:19:21;1.0584;;;2.4488;;
43413;SDS011;73638;49.676;8.606;2024-02-21T23:24:28;1.2536;;;4.6209;;
43413;SDS011;73638;49.676;8.606;2024-02-21T23:29:34;1.0413;;;2.1966;;
43413;SDS011;73638;49.676;8.606;2024-02-21T23:34:41;1.055;;;2.4792;;
43413;SDS011;73638;49.676;8.606;2024-02-21T23:39:48;1.0856;;;2.3656;;
43413;SDS011;73638;49.676;8.606;2024-02-21T23:44:54;1.057;;;1.5255;;
43413;SDS011;73638;49.676;8.606;2024-02-21T23:50:01;1.0832;;;2.0256;;
43413;SDS011;73638;49.676;8.606;2024-02-21T23:55:08;1.1526;;;2.6178;;
